Time;durP1;ratioP1;P1;durP2;ratioP2;P2;SDS_P1;SDS_P2;PMS_P1;PMS_P2;Temp;Humidity;BMP_temperature;BMP_pressure;BME280_temperature;BME280_humidity;BME280_pressure;Samples;Min_cycle;Max_cycle;Signal;HPM_P1;HPM_P2
2022/03/30 00:03:16;;;;;;;;;;;;;;;-139.34;100.00;63888.56;10609688;27;19919;-66
2022/03/30 00:08:38;;;;;;;;;;;;;;;-139.34;100.00;63888.56;10610003;27;19976;-65
2022/03/30 00:14:00;;;;;;;;;;;;;;;-139.34;100.00;63888.56;10630504;27;19919;-67
2022/03/30 00:19:21;;;;;;;;;;;;;;;-139.34;100.00;63888.56;10618240;27;20363;-66
2022/03/30 00:24:46;;;;;;;;;;;;;;;-139.34;100.00;63888.56;10607426;27;20237;-66
2022/03/30 00:30:08;;;;;;;;;;;;;;;-139.34;100.00;63888.56;10621850;27;19929;-67
2022/03/30 00:35:29;;;;;;;;;;;;;;;-139.34;100.00;63888.56;10648345;27;19919;-66
2022/03/30 00:40:51;;;;;;;;;;;;;;;-139.34;100.00;63888.56;10640735;27;19938;-66
2022/03/30 00:46:13;;;;;;;;;;;;;;;-139.34;100.00;63888.56;10625835;27;19923;-66
2022/03/30 00:51:35;;;;;;;;;;;;;;;-139.34;100.00;63888.56;10649003;27;19923;-65
2022/03/30 00:56:57;;;;;;;;;;;;;;;-139.34;100.00;63888.56;10639536;27;19942;-65
2022/03/30 01:02:20;;;;;;;;;;;;;;;-139.34;100.00;63888.56;10622994;27;19924;-65
2022/03/30 01:07:42;;;;;;;;;;;;;;;-139.34;100.00;63888.56;10619185;27;19935;-66
2022/03/30 01:13:05;;;;;;;;;;;;;;;-139.34;100.00;63888.56;10619209;27;19927;-67
2022/03/30 01:18:28;;;;;;;;;;;;;;;-139.34;100.00;63888.56;10615504;27;19919;-66
2022/03/30 01:23:49;;;;;;;;;;;;;;;-139.34;100.00;63888.56;10611740;27;19919;-65
2022/03/30 01:34:51;;;;;;;;;;;;;;;-139.34;100.00;63888.56;10628696;27;19926;-65
2022/03/30 01:40:13;;;;;;;;;;;;;;;-139.34;100.00;63888.56;10635220;27;19927;-66
2022/03/30 01:45:35;;;;;;;;;;;;;;;-139.34;100.00;63888.56;10620930;27;19934;-65
2022/03/30 01:50:57;;;;;;;;;;;;;;;-139.34;100.00;63888.56;10637735;27;19919;-65
2022/03/30 01:56:18;;;;;;;;;;;;;;;-139.34;100.00;63888.56;10596967;27;22828;-66
2022/03/30 02:01:41;;;;;;;;;;;;;;;-139.34;100.00;63888.56;10606258;27;20364;-66
2022/03/30 02:07:03;;;;;;;;;;;;;;;-139.34;100.00;63888.56;10624301;27;19931;-66
2022/03/30 02:12:25;;;;;;;;;;;;;;;-139.34;100.00;63888.56;10625908;27;19923;-66
2022/03/30 02:17:46;;;;;;;;;;;;;;;-139.34;100.00;63888.56;10604810;27;19920;-66
2022/03/30 02:23:08;;;;;;;;;;;;;;;-139.34;100.00;63888.56;10608686;27;19930;-67
2022/03/30 02:28:30;;;;;;;;;;;;;;;-139.34;100.00;63888.56;10643294;27;19929;-67
2022/03/30 02:33:52;;;;;;;;;;;;;;;-139.34;100.00;63888.56;10648412;27;19919;-65
2022/03/30 02:39:15;;;;;;;;;;;;;;;-139.34;100.00;63888.56;10634204;27;19919;-66
2022/03/30 02:44:37;;;;;;;;;;;;;;;-139.34;100.00;63888.56;10622738;27;19919;-66
2022/03/30 02:49:59;;;;;;;;;;;;;;;-139.34;100.00;63888.56;10632508;27;19923;-65
2022/03/30 02:55:20;;;;;;;;;;;;;;;-139.34;100.00;63888.56;10623807;27;19919;-65
2022/03/30 03:00:42;;;;;;;;;;;;;;;-139.34;100.00;63888.56;10627968;27;20322;-64
2022/03/30 03:06:04;;;;;;;;;;;;;;;-139.34;100.00;63888.56;10615761;27;19925;-64
2022/03/30 03:11:26;;;;;;;;;;;;;;;-139.34;100.00;63888.56;10635184;27;19919;-69
2022/03/30 03:16:47;;;;;;;;;;;;;;;-139.34;100.00;63888.56;10618066;27;20447;-69
2022/03/30 03:22:09;;;;;;;;;;;;;;;-139.34;100.00;63888.56;10628160;27;20370;-69
2022/03/30 03:27:31;;;;;;;;;;;;;;;-139.34;100.00;63888.56;10606529;27;19999;-70
2022/03/30 03:32:52;;;;;;;;;;;;;;;-139.34;100.00;63888.56;10615328;27;20418;-69
2022/03/30 03:38:14;;;;;;;;;;;;;;;-139.34;100.00;63888.56;10632486;27;19926;-69
2022/03/30 03:43:36;;;;;;;;;;;;;;;-139.34;100.00;63888.56;10695703;27;19977;-69
2022/03/30 03:48:58;;;;;;;;;;;;;;;-139.34;100.00;63888.56;10643352;27;19919;-70
2022/03/30 03:54:20;;;;;;;;;;;;;;;-139.34;100.00;63888.56;10612843;27;20500;-70
2022/03/30 03:59:41;;;;;;;;;;;;;;;-139.34;100.00;63888.56;10644040;27;20457;-69
2022/03/30 04:05:03;;;;;;;;;;;;;;;-139.34;100.00;63888.56;10642044;27;20352;-69
2022/03/30 04:10:24;;;;;;;;;;;;;;;-139.34;100.00;63888.56;10612842;27;20287;-70
2022/03/30 04:15:46;;;;;;;;;;;;;;;-139.34;100.00;63888.56;10626628;27;20283;-70
2022/03/30 04:21:13;;;;;;;;;;;;;;;-139.34;100.00;63888.56;10663075;27;20446;-71
2022/03/30 04:26:35;;;;;;;;;;;;;;;-139.34;100.00;63888.56;10633822;27;19934;-70
2022/03/30 04:31:56;;;;;;;;;;;;;;;-139.34;100.00;63888.56;10625312;27;19923;-70
2022/03/30 04:37:18;;;;;;;;;;;;;;;-139.34;100.00;63888.56;10651283;27;20307;-71
2022/03/30 04:42:39;;;;;;;;;;;;;;;-139.34;100.00;63888.56;10639543;27;19929;-70
2022/03/30 04:48:01;;;;;;;;;;;;;;;-139.34;100.00;63888.56;10640109;27;19919;-70
2022/03/30 04:53:22;;;;;;;;;;;;;;;-139.34;100.00;63888.56;10610502;27;19923;-70
2022/03/30 04:58:44;;;;;;;;;;;;;;;-139.34;100.00;63888.56;10631553;27;19919;-70
2022/03/30 05:04:06;;;;;;;;;;;;;;;-139.34;100.00;63888.56;10646547;27;19998;-70
2022/03/30 05:09:27;;;;;;;;;;;;;;;-139.34;100.00;63888.56;10605801;27;19919;-70
2022/03/30 05:14:49;;;;;;;;;;;;;;;-139.34;100.00;63888.56;10631869;27;20352;-70
2022/03/30 05:20:11;;;;;;;;;;;;;;;-139.34;100.00;63888.56;10650517;27;20453;-70
2022/03/30 05:25:33;;;;;;;;;;;;;;;-139.34;100.00;63888.56;10638612;27;19923;-70
2022/03/30 05:30:54;;;;;;;;;;;;;;;-139.34;100.00;63888.56;10629950;27;19919;-68
2022/03/30 05:36:18;;;;;;;;;;;;;;;-139.34;100.00;63888.56;10589659;27;19970;-67
2022/03/30 05:41:39;;;;;;;;;;;;;;;-139.34;100.00;63888.56;10640065;27;19919;-68
2022/03/30 05:47:01;;;;;;;;;;;;;;;-139.34;100.00;63888.56;10644250;27;19919;-69
2022/03/30 05:52:23;;;;;;;;;;;;;;;-139.34;100.00;63888.56;10591406;27;20390;-68
2022/03/30 05:57:45;;;;;;;;;;;;;;;-139.34;100.00;63888.56;10609769;27;19919;-69
2022/03/30 06:03:07;;;;;;;;;;;;;;;-139.34;100.00;63888.56;10599983;27;19919;-68
2022/03/30 06:08:29;;;;;;;;;;;;;;;-139.34;100.00;63888.56;10607404;27;19920;-68
2022/03/30 06:13:50;;;;;;;;;;;;;;;-139.34;100.00;63888.56;10632444;27;20307;-67
2022/03/30 06:19:12;;;;;;;;;;;;;;;-139.34;100.00;63888.56;10588885;27;19926;-68
2022/03/30 06:24:35;;;;;;;;;;;;;;;-139.34;100.00;63888.56;10609592;27;20482;-68
2022/03/30 06:29:57;;;;;;;;;;;;;;;-139.34;100.00;63888.56;10602062;27;19919;-69
2022/03/30 06:35:19;;;;;;;;;;;;;;;-139.34;100.00;63888.56;10622248;27;19924;-69
2022/03/30 06:40:41;;;;;;;;;;;;;;;-139.34;100.00;63888.56;10607422;27;19923;-68
2022/03/30 06:46:03;;;;;;;;;;;;;;;-139.34;100.00;63888.56;10611285;27;20005;-68
2022/03/30 06:51:25;;;;;;;;;;;;;;;-139.34;100.00;63888.56;10620699;27;19968;-68
2022/03/30 06:56:46;;;;;;;;;;;;;;;-139.34;100.00;63888.56;10643303;27;20382;-68
2022/03/30 07:02:08;;;;;;;;;;;;;;;-139.34;100.00;63888.56;10637926;27;19942;-68
2022/03/30 07:13:10;;;;;;;;;;;;;;;-139.34;100.00;63888.56;10621569;27;19946;-68
2022/03/30 07:18:32;;;;;;;;;;;;;;;-139.34;100.00;63888.56;10617574;27;19926;-68
2022/03/30 07:23:54;;;;;;;;;;;;;;;-139.34;100.00;63888.56;10603366;27;20355;-68
2022/03/30 07:29:15;;;;;;;;;;;;;;;-139.34;100.00;63888.56;10625455;27;19919;-68
2022/03/30 07:34:37;;;;;;;;;;;;;;;-139.34;100.00;63888.56;10614309;27;19923;-68
2022/03/30 07:39:59;;;;;;;;;;;;;;;-139.34;100.00;63888.56;10608775;27;20010;-68
2022/03/30 07:45:21;;;;;;;;;;;;;;;-139.34;100.00;63888.56;10643251;27;20281;-68
2022/03/30 07:50:43;;;;;;;;;;;;;;;-139.34;100.00;63888.56;10634850;27;19957;-68
2022/03/30 07:56:04;;;;;;;;;;;;;;;-139.34;100.00;63888.56;10614006;28;19923;-67
2022/03/30 08:01:26;;;;;;;;;;;;;;;-139.34;100.00;63888.56;10615880;27;19923;-68
2022/03/30 08:06:48;;;;;;;;;;;;;;;-139.34;100.00;63888.56;10628895;27;19923;-68
2022/03/30 08:12:10;;;;;;;;;;;;;;;-139.34;100.00;63888.56;10608053;27;19923;-68
2022/03/30 08:17:31;;;;;;;;;;;;;;;-139.34;100.00;63888.56;10630343;27;19919;-68
2022/03/30 08:22:53;;;;;;;;;;;;;;;-139.34;100.00;63888.56;10620144;27;19970;-68
2022/03/30 08:28:15;;;;;;;;;;;;;;;-139.34;100.00;63888.56;10606654;27;19976;-69
2022/03/30 08:33:36;;;;;;;;;;;;;;;-139.34;100.00;63888.56;10637918;27;20302;-69
2022/03/30 08:38:59;;;;;;;;;;;;;;;-139.34;100.00;63888.56;10637902;27;20261;-68
2022/03/30 08:44:21;;;;;;;;;;;;;;;-139.34;100.00;63888.56;10623013;27;20465;-68
2022/03/30 08:49:45;;;;;;;;;;;;;;;-139.34;100.00;63888.56;10613041;27;19934;-68
2022/03/30 08:55:06;;;;;;;;;;;;;;;-139.34;100.00;63888.56;10641915;27;19918;-68
2022/03/30 09:00:34;;;;;;;;;;;;;;;-139.34;100.00;63888.56;10639665;27;19919;-68
2022/03/30 09:05:56;;;;;;;;;;;;;;;-139.34;100.00;63888.56;10634354;27;19919;-68
2022/03/30 09:11:19;;;;;;;;;;;;;;;-139.34;100.00;63888.56;10627182;27;19920;-68
2022/03/30 09:16:41;;;;;;;;;;;;;;;-139.34;100.00;63888.56;10591543;27;19930;-67
2022/03/30 09:22:04;;;;;;;;;;;;;;;-139.34;100.00;63888.56;10638604;27;20437;-67
2022/03/30 09:27:26;;;;;;;;;;;;;;;-139.34;100.00;63888.56;10642054;27;19923;-68
2022/03/30 09:32:49;;;;;;;;;;;;;;;-139.34;100.00;63888.56;10611659;27;19930;-68
2022/03/30 09:38:15;;;;;;;;;;;;;;;-139.34;100.00;63888.56;10628990;27;19919;-68
2022/03/30 09:43:41;;;;;;;;;;;;;;;-139.34;100.00;63888.56;10610624;27;19929;-68
2022/03/30 09:49:03;;;;;;;;;;;;;;;-139.34;100.00;63888.56;10644273;27;20461;-68
2022/03/30 09:54:41;;;;;;;;;;;;;;;-139.34;100.00;63888.56;10652748;27;19919;-68
2022/03/30 10:00:09;;;;;;;;;;;;;;;-139.34;100.00;63888.56;10647249;27;19930;-68
2022/03/30 10:05:31;;;;;;;;;;;;;;;-139.34;100.00;63888.56;10622369;27;19923;-67
2022/03/30 10:10:52;;;;;;;;;;;;;;;-139.34;100.00;63888.56;10638512;27;19931;-69
2022/03/30 10:16:17;;;;;;;;;;;;;;;-139.34;100.00;63888.56;10649968;27;19923;-69
2022/03/30 10:21:57;;;;;;;;;;;;;;;-139.34;100.00;63888.56;10612554;27;19919;-68
2022/03/30 10:27:26;;;;;;;;;;;;;;;-139.34;100.00;63888.56;10609521;27;19925;-68
2022/03/30 10:32:54;;;;;;;;;;;;;;;-139.34;100.00;63888.56;10646351;27;20382;-68
2022/03/30 10:38:16;;;;;;;;;;;;;;;-139.34;100.00;63888.56;10628038;27;19929;-69
2022/03/30 10:43:37;;;;;;;;;;;;;;;-139.34;100.00;63888.56;10601773;27;19923;-68
2022/03/30 10:49:19;;;;;;;;;;;;;;;-139.34;100.00;63888.56;10634218;27;20040;-68
2022/03/30 10:54:40;;;;;;;;;;;;;;;-139.34;100.00;63888.56;10610927;27;19923;-68
2022/03/30 11:00:06;;;;;;;;;;;;;;;-139.34;100.00;63888.56;10602916;28;20417;-69
2022/03/30 11:05:30;;;;;;;;;;;;;;;-139.34;100.00;63888.56;10617333;27;20302;-68
2022/03/30 11:10:52;;;;;;;;;;;;;;;-139.34;100.00;63888.56;10621385;28;19919;-68
2022/03/30 11:16:14;;;;;;;;;;;;;;;-139.34;100.00;63888.56;10683316;27;20010;-68
2022/03/30 11:21:35;;;;;;;;;;;;;;;-139.34;100.00;63888.56;10612046;27;20386;-68
2022/03/30 11:26:57;;;;;;;;;;;;;;;-139.34;100.00;63888.56;10636291;27;20363;-69
2022/03/30 11:32:18;;;;;;;;;;;;;;;-139.34;100.00;63888.56;10639610;27;19926;-69
2022/03/30 11:37:40;;;;;;;;;;;;;;;-139.34;100.00;63888.56;10644934;27;19930;-68
2022/03/30 11:43:02;;;;;;;;;;;;;;;-139.34;100.00;63888.56;10630540;27;20397;-67
2022/03/30 11:48:44;;;;;;;;;;;;;;;-139.34;100.00;63888.56;10632048;27;19926;-68
2022/03/30 11:54:10;;;;;;;;;;;;;;;-139.34;100.00;63888.56;10621752;27;20396;-68
2022/03/30 11:59:32;;;;;;;;;;;;;;;-139.34;100.00;63888.56;10634064;27;19919;-68
2022/03/30 12:04:54;;;;;;;;;;;;;;;-139.34;100.00;63888.56;10638739;27;19931;-69
2022/03/30 12:10:16;;;;;;;;;;;;;;;-139.34;100.00;63888.56;10610601;27;19996;-69
2022/03/30 12:15:37;;;;;;;;;;;;;;;-139.34;100.00;63888.56;10641650;27;20289;-69
2022/03/30 12:21:02;;;;;;;;;;;;;;;-139.34;100.00;63888.56;10637188;27;19919;-68
2022/03/30 12:26:25;;;;;;;;;;;;;;;-139.34;100.00;63888.56;10607859;27;19930;-70
2022/03/30 12:31:53;;;;;;;;;;;;;;;-139.34;100.00;63888.56;10625379;27;19922;-69
2022/03/30 12:37:22;;;;;;;;;;;;;;;-139.34;100.00;63888.56;10648433;27;19954;-69
2022/03/30 12:42:44;;;;;;;;;;;;;;;-139.34;100.00;63888.56;10639178;27;20069;-69
2022/03/30 12:48:09;;;;;;;;;;;;;;;-139.34;100.00;63888.56;10632642;27;20507;-69
2022/03/30 12:53:32;;;;;;;;;;;;;;;-139.34;100.00;63888.56;10646366;27;19919;-69
2022/03/30 12:58:56;;;;;;;;;;;;;;;-139.34;100.00;63888.56;10640312;27;19926;-69
2022/03/30 13:04:30;;;;;;;;;;;;;;;-139.34;100.00;63888.56;10644431;27;19920;-69
2022/03/30 13:10:03;;;;;;;;;;;;;;;-139.34;100.00;63888.56;10648300;27;19923;-68
2022/03/30 13:15:32;;;;;;;;;;;;;;;-139.34;100.00;63888.56;10647034;27;19966;-67
2022/03/30 13:20:57;;;;;;;;;;;;;;;-139.34;100.00;63888.56;10630793;27;19922;-66
2022/03/30 13:26:33;;;;;;;;;;;;;;;-139.34;100.00;63888.56;10634131;27;19923;-66
2022/03/30 13:31:55;;;;;;;;;;;;;;;-139.34;100.00;63888.56;10632548;27;19919;-66
2022/03/30 13:37:17;;;;;;;;;;;;;;;-139.34;100.00;63888.56;10625093;27;19919;-66
2022/03/30 13:42:38;;;;;;;;;;;;;;;-139.34;100.00;63888.56;10606124;27;20375;-66
2022/03/30 13:48:00;;;;;;;;;;;;;;;-139.34;100.00;63888.56;10624990;27;19919;-67
2022/03/30 13:53:22;;;;;;;;;;;;;;;-139.34;100.00;63888.56;10619445;27;19919;-68
2022/03/30 13:58:44;;;;;;;;;;;;;;;-139.34;100.00;63888.56;10644827;27;20008;-67
2022/03/30 14:04:06;;;;;;;;;;;;;;;-139.34;100.00;63888.56;10631982;27;19919;-67
2022/03/30 14:09:31;;;;;;;;;;;;;;;-139.34;100.00;63888.56;10618128;27;19919;-66
2022/03/30 14:14:56;;;;;;;;;;;;;;;-139.34;100.00;63888.56;10629686;27;19930;-67
2022/03/30 14:20:18;;;;;;;;;;;;;;;-139.34;100.00;63888.56;10617315;27;20010;-68
2022/03/30 14:25:39;;;;;;;;;;;;;;;-139.34;100.00;63888.56;10637577;27;19923;-67
2022/03/30 14:31:03;;;;;;;;;;;;;;;-139.34;100.00;63888.56;10633411;27;19919;-68
2022/03/30 14:36:24;;;;;;;;;;;;;;;-139.34;100.00;63888.56;10609810;27;19934;-67
2022/03/30 14:41:46;;;;;;;;;;;;;;;-139.34;100.00;63888.56;10613481;27;19919;-69
2022/03/30 14:47:08;;;;;;;;;;;;;;;-139.34;100.00;63888.56;10611202;27;19930;-68
2022/03/30 14:52:29;;;;;;;;;;;;;;;-139.34;100.00;63888.56;10613634;27;19923;-68
2022/03/30 14:57:56;;;;;;;;;;;;;;;-139.34;100.00;63888.56;10623336;27;19931;-68
2022/03/30 15:03:18;;;;;;;;;;;;;;;-139.34;100.00;63888.56;10630845;27;20355;-69
2022/03/30 15:08:41;;;;;;;;;;;;;;;-139.34;100.00;63888.56;10603980;27;19922;-68
2022/03/30 15:14:03;;;;;;;;;;;;;;;-139.34;100.00;63888.56;10620732;27;19966;-68
2022/03/30 15:19:25;;;;;;;;;;;;;;;-139.34;100.00;63888.56;10624050;27;22035;-67
2022/03/30 15:24:47;;;;;;;;;;;;;;;-139.34;100.00;63888.56;10635526;27;20013;-67
2022/03/30 15:30:09;;;;;;;;;;;;;;;-139.34;100.00;63888.56;10611296;27;19923;-68
2022/03/30 15:35:30;;;;;;;;;;;;;;;-139.34;100.00;63888.56;10631925;27;19927;-66
2022/03/30 15:40:52;;;;;;;;;;;;;;;-139.34;100.00;63888.56;10627506;27;19919;-66
2022/03/30 15:46:13;;;;;;;;;;;;;;;-139.34;100.00;63888.56;10615427;27;19926;-66
2022/03/30 15:51:35;;;;;;;;;;;;;;;-139.34;100.00;63888.56;10617220;27;19953;-67
2022/03/30 15:56:57;;;;;;;;;;;;;;;-139.34;100.00;63888.56;10617875;27;19923;-68
2022/03/30 16:02:18;;;;;;;;;;;;;;;-139.34;100.00;63888.56;10620377;27;19926;-67
2022/03/30 16:13:20;;;;;;;;;;;;;;;-139.34;100.00;63888.56;10629416;27;20021;-68
2022/03/30 16:18:42;;;;;;;;;;;;;;;-139.34;100.00;63888.56;10626473;27;19923;-68
2022/03/30 16:24:05;;;;;;;;;;;;;;;-139.34;100.00;63888.56;10645484;27;19948;-68
2022/03/30 16:29:27;;;;;;;;;;;;;;;-139.34;100.00;63888.56;10619545;27;19926;-68
2022/03/30 16:34:51;;;;;;;;;;;;;;;-139.34;100.00;63888.56;10635320;27;19923;-68
2022/03/30 16:40:13;;;;;;;;;;;;;;;-139.34;100.00;63888.56;10611392;27;20363;-68
2022/03/30 16:45:38;;;;;;;;;;;;;;;-139.34;100.00;63888.56;10618013;27;19930;-67
2022/03/30 16:50:59;;;;;;;;;;;;;;;-139.34;100.00;63888.56;10618375;27;20438;-69
2022/03/30 16:56:22;;;;;;;;;;;;;;;-139.34;100.00;63888.56;10631377;27;20298;-68
2022/03/30 17:01:43;;;;;;;;;;;;;;;-139.34;100.00;63888.56;10630655;27;19919;-69
2022/03/30 17:07:05;;;;;;;;;;;;;;;-139.34;100.00;63888.56;10636121;27;19930;-68
2022/03/30 17:12:34;;;;;;;;;;;;;;;-139.34;100.00;63888.56;10636986;27;19958;-68
2022/03/30 17:17:56;;;;;;;;;;;;;;;-139.34;100.00;63888.56;10624592;27;20310;-68
2022/03/30 17:23:18;;;;;;;;;;;;;;;-139.34;100.00;63888.56;10599770;27;19923;-69
2022/03/30 17:28:41;;;;;;;;;;;;;;;-139.34;100.00;63888.56;10612046;27;19923;-71
2022/03/30 17:34:03;;;;;;;;;;;;;;;-139.34;100.00;63888.56;10623702;27;19923;-72
2022/03/30 17:39:25;;;;;;;;;;;;;;;-139.34;100.00;63888.56;10605743;27;19949;-75
2022/03/30 17:44:47;;;;;;;;;;;;;;;-139.34;100.00;63888.56;10626464;27;19922;-71
2022/03/30 17:55:48;;;;;;;;;;;;;;;-139.34;100.00;63888.56;10626432;27;19926;-70
2022/03/30 18:01:10;;;;;;;;;;;;;;;-139.34;100.00;63888.56;10623299;27;20390;-69
2022/03/30 18:06:32;;;;;;;;;;;;;;;-139.34;100.00;63888.56;10600949;27;20338;-68
2022/03/30 18:11:54;;;;;;;;;;;;;;;-139.34;100.00;63888.56;10627229;27;19923;-69
2022/03/30 18:17:26;;;;;;;;;;;;;;;-139.34;100.00;63888.56;10608318;27;19923;-68
2022/03/30 18:22:49;;;;;;;;;;;;;;;-139.34;100.00;63888.56;10615808;27;19927;-70
2022/03/30 18:28:12;;;;;;;;;;;;;;;-139.34;100.00;63888.56;10623742;27;19926;-69
2022/03/30 18:33:37;;;;;;;;;;;;;;;-139.34;100.00;63888.56;10644511;27;19919;-69
2022/03/30 18:39:01;;;;;;;;;;;;;;;-139.34;100.00;63888.56;10623459;27;19926;-69
2022/03/30 18:44:22;;;;;;;;;;;;;;;-139.34;100.00;63888.56;10621010;27;19926;-69
2022/03/30 18:49:44;;;;;;;;;;;;;;;-139.34;100.00;63888.56;10637054;27;19920;-69
2022/03/30 18:55:07;;;;;;;;;;;;;;;-139.34;100.00;63888.56;10628036;27;19923;-69
2022/03/30 19:00:28;;;;;;;;;;;;;;;-139.34;100.00;63888.56;10644892;27;19922;-69
2022/03/30 19:05:50;;;;;;;;;;;;;;;-139.34;100.00;63888.56;10614770;27;19919;-69
2022/03/30 19:11:12;;;;;;;;;;;;;;;-139.34;100.00;63888.56;10634932;27;19927;-67
2022/03/30 19:16:34;;;;;;;;;;;;;;;-139.34;100.00;63888.56;10643377;27;19922;-69
2022/03/30 19:21:55;;;;;;;;;;;;;;;-139.34;100.00;63888.56;10604406;27;20010;-69
2022/03/30 19:27:17;;;;;;;;;;;;;;;-139.34;100.00;63888.56;10597000;27;19931;-69
2022/03/30 19:32:38;;;;;;;;;;;;;;;-139.34;100.00;63888.56;10610534;28;19919;-69
2022/03/30 19:38:00;;;;;;;;;;;;;;;-139.34;100.00;63888.56;10625038;27;19986;-68
2022/03/30 19:43:22;;;;;;;;;;;;;;;-139.34;100.00;63888.56;10601581;28;20002;-69
2022/03/30 19:48:43;;;;;;;;;;;;;;;-139.34;100.00;63888.56;10642550;27;19926;-69
2022/03/30 19:54:05;;;;;;;;;;;;;;;-139.34;100.00;63888.56;10616062;27;19969;-69
2022/03/30 19:59:26;;;;;;;;;;;;;;;-139.34;100.00;63888.56;10645404;27;19942;-69
2022/03/30 20:04:48;;;;;;;;;;;;;;;-139.34;100.00;63888.56;10633011;27;19923;-69
2022/03/30 20:10:10;;;;;;;;;;;;;;;-139.34;100.00;63888.56;10651403;27;19923;-69
2022/03/30 20:15:32;;;;;;;;;;;;;;;-139.34;100.00;63888.56;10651077;27;19929;-69
2022/03/30 20:20:54;;;;;;;;;;;;;;;-139.34;100.00;63888.56;10631002;27;19946;-69
2022/03/30 20:26:15;;;;;;;;;;;;;;;-139.34;100.00;63888.56;10649423;27;20371;-69
2022/03/30 20:31:37;;;;;;;;;;;;;;;-139.34;100.00;63888.56;10620092;27;19926;-69
2022/03/30 20:36:58;;;;;;;;;;;;;;;-139.34;100.00;63888.56;10607455;27;19919;-69
2022/03/30 20:42:20;;;;;;;;;;;;;;;-139.34;100.00;63888.56;10663285;27;19946;-68
2022/03/30 20:47:41;;;;;;;;;;;;;;;-139.34;100.00;63888.56;10602521;27;19986;-68
2022/03/30 20:53:03;;;;;;;;;;;;;;;-139.34;100.00;63888.56;10640490;27;19919;-69
2022/03/30 20:58:25;;;;;;;;;;;;;;;-139.34;100.00;63888.56;10630950;27;19927;-68
2022/03/30 21:03:47;;;;;;;;;;;;;;;-139.34;100.00;63888.56;10639562;27;19926;-69
2022/03/30 21:09:08;;;;;;;;;;;;;;;-139.34;100.00;63888.56;10616325;27;19926;-68
2022/03/30 21:14:32;;;;;;;;;;;;;;;-139.34;100.00;63888.56;10640053;27;20005;-69
2022/03/30 21:19:55;;;;;;;;;;;;;;;-139.34;100.00;63888.56;10630119;27;19920;-69
2022/03/30 21:25:17;;;;;;;;;;;;;;;-139.34;100.00;63888.56;10647853;27;19930;-69
2022/03/30 21:30:38;;;;;;;;;;;;;;;-139.34;100.00;63888.56;10645625;27;19918;-69
2022/03/30 21:36:00;;;;;;;;;;;;;;;-139.34;100.00;63888.56;10646629;27;19923;-68
2022/03/30 21:41:22;;;;;;;;;;;;;;;-139.34;100.00;63888.56;10609174;27;19923;-69
2022/03/30 21:46:46;;;;;;;;;;;;;;;-139.34;100.00;63888.56;10620611;27;19942;-69
2022/03/30 21:52:08;;;;;;;;;;;;;;;-139.34;100.00;63888.56;10632603;27;19937;-69
2022/03/30 21:57:29;;;;;;;;;;;;;;;-139.34;100.00;63888.56;10620991;27;20006;-69
2022/03/30 22:02:52;;;;;;;;;;;;;;;-139.34;100.00;63888.56;10614314;27;19929;-69
2022/03/30 22:08:14;;;;;;;;;;;;;;;-139.34;100.00;63888.56;10603638;27;19927;-69
2022/03/30 22:13:35;;;;;;;;;;;;;;;-139.34;100.00;63888.56;10630718;27;19930;-69
2022/03/30 22:18:57;;;;;;;;;;;;;;;-139.34;100.00;63888.56;10622946;27;20562;-69
2022/03/30 22:24:18;;;;;;;;;;;;;;;-139.34;100.00;63888.56;10637513;27;19922;-69
2022/03/30 22:29:40;;;;;;;;;;;;;;;-139.34;100.00;63888.56;10643154;27;19938;-69
2022/03/30 22:40:43;;;;;;;;;;;;;;;-139.34;100.00;63888.56;10620104;27;20385;-69
2022/03/30 22:46:05;;;;;;;;;;;;;;;-139.34;100.00;63888.56;10644268;27;19919;-69
2022/03/30 22:51:27;;;;;;;;;;;;;;;-139.34;100.00;63888.56;10622665;27;20338;-69
2022/03/30 22:56:49;;;;;;;;;;;;;;;-139.34;100.00;63888.56;10617284;27;20395;-69
2022/03/30 23:02:10;;;;;;;;;;;;;;;-139.34;100.00;63888.56;10616193;27;19919;-70
2022/03/30 23:13:13;;;;;;;;;;;;;;;-139.34;100.00;63888.56;10634779;27;19921;-69
2022/03/30 23:18:35;;;;;;;;;;;;;;;-139.34;100.00;63888.56;10626226;27;20018;-69
2022/03/30 23:23:57;;;;;;;;;;;;;;;-139.34;100.00;63888.56;10627817;27;19949;-69
2022/03/30 23:29:18;;;;;;;;;;;;;;;-139.34;100.00;63888.56;10641988;27;19918;-69
2022/03/30 23:34:40;;;;;;;;;;;;;;;-139.34;100.00;63888.56;10610153;27;19919;-70
2022/03/30 23:40:01;;;;;;;;;;;;;;;-139.34;100.00;63888.56;10622664;27;19925;-69
2022/03/30 23:45:23;;;;;;;;;;;;;;;-139.34;100.00;63888.56;10656213;27;19933;-70
2022/03/30 23:50:45;;;;;;;;;;;;;;;-139.34;100.00;63888.56;10650719;27;19930;-70
2022/03/30 23:56:24;;;;;;;;;;;;;;;-139.34;100.00;63888.56;10668195;27;19926;-69
